Time;durP1;ratioP1;P1;durP2;ratioP2;P2;SDS_P1;SDS_P2;PMS_P1;PMS_P2;Temp;Humidity;BMP_temperature;BMP_pressure;BME280_temperature;BME280_humidity;BME280_pressure;Samples;Min_cycle;Max_cycle;Signal;HPM_P1;HPM_P2
2022/10/24 00:00:41;;;;;;;8.35;2.42;;;;;;;16.51;78.03;100146.09;3613826;39;20318;-59
2022/10/24 00:03:08;;;;;;;7.60;2.10;;;;;;;16.50;77.15;100144.38;3613135;39;20058;-59
2022/10/24 00:05:33;;;;;;;5.75;2.15;;;;;;;16.53;77.54;100137.81;3614155;39;20097;-59
2022/10/24 00:07:59;;;;;;;9.70;2.00;;;;;;;16.54;76.67;100142.22;3612410;39;20075;-58
2022/10/24 00:10:24;;;;;;;5.00;2.10;;;;;;;16.54;76.96;100145.78;3613531;39;20406;-59
2022/10/24 00:12:53;;;;;;;4.93;1.98;;;;;;;16.52;76.61;100131.50;3613765;39;20055;-59
2022/10/24 00:15:19;;;;;;;5.75;2.15;;;;;;;16.51;76.28;100132.50;3613455;39;20075;-59
2022/10/24 00:17:45;;;;;;;6.50;2.00;;;;;;;16.50;75.93;100143.53;3613364;39;20123;-57
2022/10/24 00:20:11;;;;;;;4.88;1.63;;;;;;;16.54;75.20;100139.50;3602928;39;20050;-59
2022/10/24 00:22:37;;;;;;;8.05;2.25;;;;;;;16.56;75.71;100137.50;3613410;39;20090;-59
2022/10/24 00:25:04;;;;;;;7.22;2.35;;;;;;;16.59;74.77;100142.63;3613034;39;20070;-59
2022/10/24 00:27:30;;;;;;;5.65;2.42;;;;;;;16.59;74.06;100131.78;3612460;39;20395;-59
2022/10/24 00:29:56;;;;;;;6.20;2.40;;;;;;;16.62;73.78;100132.34;3612554;39;20051;-58
2022/10/24 00:32:22;;;;;;;4.55;2.08;;;;;;;16.60;73.84;100130.75;3613472;39;20058;-59
2022/10/24 00:34:47;;;;;;;5.20;2.20;;;;;;;16.66;73.54;100139.16;3611660;39;20051;-59
2022/10/24 00:37:13;;;;;;;6.25;1.98;;;;;;;16.67;73.49;100142.72;3613314;39;20057;-59
2022/10/24 00:39:39;;;;;;;4.38;2.10;;;;;;;16.66;73.40;100138.31;3601380;39;20062;-59
2022/10/24 00:42:04;;;;;;;5.80;1.80;;;;;;;16.65;73.49;100131.16;3603576;39;21220;-59
2022/10/24 00:44:38;;;;;;;7.03;2.17;;;;;;;16.61;73.05;100118.91;3613984;39;20079;-59
2022/10/24 00:47:18;;;;;;;5.38;1.92;;;;;;;16.65;72.84;100125.72;3613383;39;20063;-59
2022/10/24 00:50:10;;;;;;;5.90;2.10;;;;;;;16.62;72.95;100126.06;3612229;39;20053;-58
2022/10/24 00:52:43;;;;;;;6.38;2.08;;;;;;;16.60;72.18;100122.63;3611809;39;20058;-59
2022/10/24 00:55:11;;;;;;;;;;;;;;;16.60;72.75;100117.19;3613101;39;20073;-59
2022/10/24 00:57:51;;;;;;;4.70;2.20;;;;;;;16.59;72.61;100115.50;3611621;39;19935;-58
2022/10/24 01:00:23;;;;;;;7.38;2.00;;;;;;;16.59;71.93;100118.22;3610073;39;20369;-59
2022/10/24 01:02:49;;;;;;;7.30;2.40;;;;;;;16.53;72.69;100121.53;3612800;39;20055;-58
2022/10/24 01:05:20;;;;;;;8.45;2.60;;;;;;;16.53;72.37;100116.94;3613295;39;20104;-58
2022/10/24 01:08:10;;;;;;;5.55;1.77;;;;;;;16.54;71.78;100118.66;3610815;39;20057;-59
2022/10/24 01:11:24;;;;;;;7.40;2.20;;;;;;;16.55;71.51;100116.78;3613444;39;20057;-59
2022/10/24 01:14:17;;;;;;;5.88;2.30;;;;;;;16.54;70.96;100107.81;3613648;39;20061;-59
2022/10/24 01:17:08;;;;;;;4.70;1.73;;;;;;;16.64;70.55;100107.75;3611849;39;20119;-59
2022/10/24 01:20:14;;;;;;;7.43;2.33;;;;;;;16.64;70.65;100113.16;3611319;39;20055;-59
2022/10/24 01:23:04;;;;;;;4.18;2.33;;;;;;;16.69;70.87;100110.88;3613534;39;20174;-59
2022/10/24 01:26:16;;;;;;;6.00;2.42;;;;;;;16.69;70.41;100103.56;3613332;39;20119;-59
2022/10/24 01:29:01;;;;;;;5.03;2.13;;;;;;;16.69;70.20;100106.28;3612730;39;20393;-59
2022/10/24 01:31:57;;;;;;;7.90;2.20;;;;;;;16.71;70.24;100103.41;3611795;39;20047;-59
2022/10/24 01:34:38;;;;;;;8.32;1.85;;;;;;;16.74;69.31;100113.97;3613127;39;20104;-58
2022/10/24 01:37:18;;;;;;;7.68;1.90;;;;;;;16.39;68.96;100045.03;3613243;39;20069;-58
2022/10/24 01:39:54;;;;;;;4.00;2.17;;;;;;;16.72;68.79;100088.84;3612696;39;20042;-59
2022/10/24 01:42:26;;;;;;;7.75;2.50;;;;;;;16.75;69.05;100106.69;3613615;39;20057;-59
2022/10/24 01:45:00;;;;;;;5.32;2.20;;;;;;;16.73;69.23;100111.41;3612916;39;20091;-59
2022/10/24 01:47:43;;;;;;;6.22;2.20;;;;;;;16.67;69.00;100096.59;3612639;39;20050;-57
2022/10/24 01:50:14;;;;;;;4.28;1.92;;;;;;;16.70;68.10;100097.13;3613310;39;20047;-59
2022/10/24 01:52:44;;;;;;;7.72;2.30;;;;;;;16.73;68.24;100090.53;3613520;39;20059;-59
2022/10/24 01:55:11;;;;;;;2.78;1.73;;;;;;;16.72;68.32;100088.84;3608981;39;20062;-58
2022/10/24 01:57:38;;;;;;;8.38;2.20;;;;;;;16.74;67.71;100085.97;3611141;39;20112;-59
2022/10/24 02:00:08;;;;;;;5.43;2.15;;;;;;;16.72;67.71;100086.13;3612433;39;20075;-58
2022/10/24 02:02:44;;;;;;;5.05;1.88;;;;;;;16.70;68.09;100078.13;3613620;39;20360;-59
2022/10/24 02:05:22;;;;;;;11.18;2.00;;;;;;;16.71;66.90;100087.13;3614556;39;20053;-59
2022/10/24 02:07:56;;;;;;;6.15;1.80;;;;;;;16.75;66.72;100085.88;3614142;39;20050;-59
2022/10/24 02:10:31;;;;;;;4.70;1.60;;;;;;;16.76;66.79;100090.28;3615796;39;20051;-59
2022/10/24 02:13:29;;;;;;;8.55;1.80;;;;;;;16.78;67.17;100088.28;3613941;39;20099;-59
2022/10/24 02:15:59;;;;;;;6.95;2.00;;;;;;;16.82;65.92;100083.38;3610431;39;20055;-59
2022/10/24 02:18:28;;;;;;;6.53;1.92;;;;;;;16.81;65.69;100082.53;3614412;39;20065;-59
2022/10/24 02:21:14;;;;;;;5.43;2.00;;;;;;;16.84;66.17;100081.34;3612829;39;20050;-59
2022/10/24 02:24:01;;;;;;;5.88;2.15;;;;;;;16.78;65.92;100080.13;3614648;39;20100;-59
2022/10/24 02:26:46;;;;;;;4.18;1.65;;;;;;;16.81;66.37;100087.09;3612308;39;20047;-59
2022/10/24 02:29:25;;;;;;;4.97;1.70;;;;;;;16.78;65.74;100088.28;3614503;39;20091;-58
2022/10/24 02:31:58;;;;;;;4.25;1.65;;;;;;;16.61;66.01;100053.78;3614208;39;20043;-58
2022/10/24 02:34:32;;;;;;;6.38;2.05;;;;;;;16.81;65.91;100077.13;3614526;39;20066;-59
2022/10/24 02:37:02;;;;;;;5.85;1.70;;;;;;;16.79;65.69;100079.13;3613693;39;20063;-59
2022/10/24 02:39:33;;;;;;;6.72;1.42;;;;;;;16.83;64.97;100091.38;3613216;39;20401;-59
2022/10/24 02:42:03;;;;;;;5.13;1.70;;;;;;;16.75;64.84;100066.88;3614985;39;20071;-59
2022/10/24 02:44:31;;;;;;;5.32;1.50;;;;;;;16.86;64.33;100091.06;3614026;39;20569;-59
2022/10/24 02:47:03;;;;;;;6.28;1.75;;;;;;;16.88;63.80;100083.63;3614122;39;20047;-59
2022/10/24 02:49:29;;;;;;;5.65;1.65;;;;;;;16.93;63.76;100083.16;3614028;39;20062;-59
2022/10/24 02:51:56;;;;;;;5.63;1.45;;;;;;;16.97;63.73;100089.13;3614438;39;20390;-59
2022/10/24 02:54:21;;;;;;;3.72;1.33;;;;;;;16.96;63.77;100090.13;3613548;39;20097;-58
2022/10/24 02:56:56;;;;;;;6.07;1.85;;;;;;;16.97;63.68;100097.28;3614664;39;20059;-59
2022/10/24 02:59:22;;;;;;;5.50;1.42;;;;;;;16.99;63.65;100095.25;3613882;39;20058;-59
2022/10/24 03:01:47;;;;;;;5.53;1.50;;;;;;;17.00;63.82;100095.13;3614636;39;20266;-59
2022/10/24 03:04:13;;;;;;;5.30;1.77;;;;;;;17.01;63.24;100098.69;3612463;39;20061;-59
2022/10/24 03:06:39;;;;;;;7.13;1.55;;;;;;;17.02;63.92;100097.66;3612475;39;20061;-58
2022/10/24 03:09:04;;;;;;;5.72;1.75;;;;;;;16.96;63.63;100101.84;3614410;39;20143;-60
2022/10/24 03:11:30;;;;;;;4.53;1.55;;;;;;;16.94;63.77;100099.31;3613928;39;20070;-59
2022/10/24 03:13:55;;;;;;;4.25;1.40;;;;;;;16.95;64.01;100086.56;3613734;39;20439;-60
2022/10/24 03:16:21;;;;;;;4.45;1.33;;;;;;;16.99;63.48;100087.97;3612956;39;20047;-60
2022/10/24 03:18:47;;;;;;;3.75;1.52;;;;;;;16.99;63.68;100087.13;3613208;39;20043;-59
2022/10/24 03:21:13;;;;;;;2.83;1.23;;;;;;;16.99;63.99;100085.25;3614543;39;20341;-60
2022/10/24 03:23:38;;;;;;;5.85;1.75;;;;;;;16.98;64.20;100088.13;3613565;39;20063;-59
2022/10/24 03:26:04;;;;;;;6.53;1.70;;;;;;;16.94;63.70;100083.00;3614578;39;20313;-59
2022/10/24 03:28:30;;;;;;;9.88;2.00;;;;;;;16.91;63.80;100086.03;3612849;39;20124;-59
2022/10/24 03:30:55;;;;;;;4.50;1.67;;;;;;;16.88;63.90;100085.50;3611561;39;20050;-59
2022/10/24 03:33:22;;;;;;;7.07;1.65;;;;;;;16.79;64.68;100073.69;3613795;39;20047;-59
2022/10/24 03:35:54;;;;;;;4.78;1.85;;;;;;;16.87;64.17;100089.19;3613852;39;20055;-59
2022/10/24 03:38:22;;;;;;;4.63;1.75;;;;;;;16.83;63.90;100079.66;3612518;39;20051;-58
2022/10/24 03:40:49;;;;;;;5.13;1.55;;;;;;;16.86;64.82;100080.19;3614252;39;20315;-58
2022/10/24 03:43:15;;;;;;;5.53;2.80;;;;;;;16.82;64.20;100078.81;3613780;39;20279;-59
2022/10/24 03:45:41;;;;;;;5.53;1.70;;;;;;;16.90;63.97;100073.47;3613041;39;20077;-57
2022/10/24 03:48:07;;;;;;;5.95;1.80;;;;;;;16.94;64.23;100076.72;3613974;39;20402;-57
2022/10/24 03:50:33;;;;;;;5.50;1.70;;;;;;;16.94;64.06;100071.31;3613689;39;20069;-59
2022/10/24 03:52:59;;;;;;;7.13;1.95;;;;;;;16.82;64.00;100051.66;3614507;39;20055;-59
2022/10/24 03:55:26;;;;;;;4.82;2.03;;;;;;;16.91;64.25;100066.19;3613342;39;20070;-59
2022/10/24 03:57:53;;;;;;;5.82;1.80;;;;;;;16.81;64.59;100052.69;3613981;39;20124;-60
2022/10/24 04:00:19;;;;;;;7.95;1.67;;;;;;;16.93;63.87;100081.28;3613509;39;20158;-60
2022/10/24 04:02:46;;;;;;;6.68;1.70;;;;;;;16.94;63.80;100074.88;3612746;39;20352;-59
2022/10/24 04:05:12;;;;;;;3.55;1.70;;;;;;;16.94;64.25;100083.00;3612472;39;20051;-59
2022/10/24 04:07:38;;;;;;;4.85;1.80;;;;;;;16.96;64.33;100082.00;3612117;39;20058;-60
2022/10/24 04:10:05;;;;;;;2.85;1.70;;;;;;;16.98;64.70;100088.13;3613051;39;20058;-59
2022/10/24 04:12:32;;;;;;;7.05;1.65;;;;;;;16.98;64.54;100093.56;3613336;39;20065;-59
2022/10/24 04:14:58;;;;;;;4.50;1.75;;;;;;;16.91;64.61;100067.03;3611540;39;20397;-59
2022/10/24 04:17:23;;;;;;;7.18;1.63;;;;;;;16.98;64.68;100082.72;3614179;39;20050;-59
2022/10/24 04:19:49;;;;;;;7.20;1.95;;;;;;;17.00;63.72;100069.81;3613037;39;20058;-59
2022/10/24 04:22:15;;;;;;;6.63;1.70;;;;;;;17.00;63.42;100070.69;3613190;39;20104;-59
2022/10/24 04:24:41;;;;;;;6.05;1.80;;;;;;;17.01;63.94;100071.53;3612182;39;20059;-61
2022/10/24 04:27:07;;;;;;;7.38;1.50;;;;;;;17.03;63.53;100066.78;3613599;39;20054;-61
2022/10/24 04:29:34;;;;;;;6.70;2.55;;;;;;;16.98;63.20;100067.25;3612654;39;20055;-61
2022/10/24 04:32:00;;;;;;;6.25;1.60;;;;;;;17.06;62.48;100071.91;3613993;39;20406;-61
2022/10/24 04:34:25;;;;;;;7.15;1.50;;;;;;;17.09;62.73;100068.88;3613126;39;20062;-62
2022/10/24 04:36:51;;;;;;;5.13;1.70;;;;;;;17.12;62.55;100074.84;3599942;39;20054;-61
2022/10/24 04:39:18;;;;;;;2.75;1.33;;;;;;;17.13;62.32;100067.59;3612723;39;20054;-61
2022/10/24 04:41:44;;;;;;;7.35;1.98;;;;;;;17.08;62.70;100072.63;3607893;39;20163;-61
2022/10/24 04:44:10;;;;;;;6.38;1.63;;;;;;;17.05;63.54;100067.50;3613200;39;20393;-61
2022/10/24 04:46:35;;;;;;;5.63;1.73;;;;;;;17.07;63.65;100070.91;3611618;39;20082;-61
2022/10/24 04:49:01;;;;;;;5.90;1.70;;;;;;;17.07;63.68;100076.34;3612943;39;20046;-61
2022/10/24 04:51:27;;;;;;;6.13;1.33;;;;;;;17.10;63.51;100079.59;3613220;39;20143;-62
2022/10/24 04:53:52;;;;;;;5.05;1.50;;;;;;;17.08;63.67;100072.63;3611295;39;20380;-62
2022/10/24 04:56:18;;;;;;;5.53;1.95;;;;;;;17.13;63.71;100067.59;3612018;39;20269;-61
2022/10/24 04:58:44;;;;;;;7.55;1.35;;;;;;;17.14;63.16;100082.84;3613148;39;20300;-61
2022/10/24 05:01:10;;;;;;;5.13;1.60;;;;;;;17.17;63.61;100087.97;3612851;39;20042;-62
2022/10/24 05:03:36;;;;;;;6.15;1.83;;;;;;;17.13;63.33;100064.88;3609654;39;20061;-62
2022/10/24 05:06:01;;;;;;;8.68;1.63;;;;;;;17.18;62.98;100076.94;3613119;39;20297;-61
2022/10/24 05:08:27;;;;;;;6.55;1.75;;;;;;;17.24;62.59;100078.19;3612651;39;20062;-61
2022/10/24 05:10:53;;;;;;;6.85;1.60;;;;;;;17.16;63.42;100065.41;3612234;39;20047;-61
2022/10/24 05:13:19;;;;;;;9.63;1.95;;;;;;;17.17;63.88;100082.56;3614479;39;20042;-60
2022/10/24 05:15:45;;;;;;;6.68;1.80;;;;;;;17.11;63.39;100072.31;3611421;39;20051;-61
2022/10/24 05:18:11;;;;;;;6.13;1.63;;;;;;;17.11;63.64;100084.00;3613082;39;20051;-61
2022/10/24 05:20:36;;;;;;;8.55;1.90;;;;;;;17.11;64.66;100083.16;3613245;39;20046;-61
2022/10/24 05:23:03;;;;;;;5.28;1.80;;;;;;;17.00;63.97;100086.09;3613858;39;20047;-60
2022/10/24 05:25:29;;;;;;;7.90;2.20;;;;;;;17.13;64.42;100092.03;3612274;39;20065;-61
2022/10/24 05:27:55;;;;;;;7.95;1.67;;;;;;;17.13;64.07;100086.59;3614297;39;20043;-61
2022/10/24 05:30:20;;;;;;;10.02;2.22;;;;;;;17.21;63.43;100089.38;3611825;39;20049;-61
2022/10/24 05:32:46;;;;;;;5.22;1.90;;;;;;;17.24;64.06;100099.91;3610462;39;20305;-60
2022/10/24 05:35:12;;;;;;;4.55;1.90;;;;;;;17.14;63.69;100074.72;3612697;39;20055;-61
2022/10/24 05:37:38;;;;;;;5.57;1.77;;;;;;;17.22;63.25;100080.22;3615145;39;20058;-60
2022/10/24 05:40:10;;;;;;;6.72;1.80;;;;;;;17.33;63.63;100099.00;3612685;39;20058;-62
2022/10/24 05:42:37;;;;;;;6.95;1.67;;;;;;;17.28;63.60;100087.72;3615245;39;20403;-62
2022/10/24 05:45:06;;;;;;;3.42;1.30;;;;;;;17.36;63.01;100104.09;3615455;39;20050;-60
2022/10/24 05:47:31;;;;;;;6.07;1.60;;;;;;;17.37;63.74;100103.09;3614852;39;20061;-61
2022/10/24 05:49:57;;;;;;;7.85;1.83;;;;;;;17.34;62.91;100106.13;3614396;39;20055;-63
2022/10/24 05:52:23;;;;;;;7.30;1.80;;;;;;;17.38;63.39;100117.56;3614707;39;20103;-61
2022/10/24 05:54:49;;;;;;;8.15;2.05;;;;;;;17.40;62.69;100110.09;3614625;39;20059;-61
2022/10/24 05:57:14;;;;;;;7.22;1.95;;;;;;;17.37;63.69;100116.66;3614729;39;20531;-61
2022/10/24 05:59:40;;;;;;;8.75;1.90;;;;;;;17.38;63.17;100102.09;3614420;39;20054;-61
2022/10/24 06:02:06;;;;;;;6.25;1.67;;;;;;;17.36;62.81;100104.09;3611356;39;20055;-61
2022/10/24 06:04:32;;;;;;;6.90;1.77;;;;;;;17.29;63.08;100102.19;3612369;39;20051;-61
2022/10/24 06:06:57;;;;;;;7.95;1.80;;;;;;;17.27;63.74;100110.47;3612836;39;20055;-60
2022/10/24 06:09:23;;;;;;;7.43;2.05;;;;;;;17.27;63.57;100124.06;3614365;39;20058;-61
2022/10/24 06:11:49;;;;;;;6.60;1.58;;;;;;;17.25;63.71;100120.63;3614410;39;20047;-61
2022/10/24 06:14:15;;;;;;;7.13;1.83;;;;;;;17.23;63.39;100119.09;3612268;39;20089;-61
2022/10/24 06:16:41;;;;;;;11.43;2.28;;;;;;;17.21;63.18;100121.97;3614705;39;20051;-61
2022/10/24 06:19:07;;;;;;;8.63;2.13;;;;;;;17.22;63.67;100126.41;3612829;39;20120;-61
2022/10/24 06:21:33;;;;;;;8.20;2.05;;;;;;;17.18;64.08;100127.69;3614356;39;20063;-61
2022/10/24 06:23:58;;;;;;;9.13;2.00;;;;;;;17.19;64.15;100121.28;3614683;39;20059;-60
2022/10/24 06:26:24;;;;;;;5.55;1.83;;;;;;;17.16;63.68;100121.59;3614108;39;20092;-60
2022/10/24 06:28:50;;;;;;;10.23;1.98;;;;;;;17.12;64.86;100117.44;3614110;39;20085;-60
2022/10/24 06:31:18;;;;;;;6.07;1.60;;;;;;;17.09;64.97;100123.19;3613633;39;20451;-61
2022/10/24 06:33:43;;;;;;;12.00;2.67;;;;;;;17.06;64.67;100127.09;3614779;39;20041;-60
2022/10/24 06:36:10;;;;;;;8.48;1.77;;;;;;;16.99;64.46;100119.69;3613602;39;20043;-60
2022/10/24 06:38:36;;;;;;;8.65;2.00;;;;;;;17.00;65.11;100124.09;3613914;39;20074;-60
2022/10/24 06:41:08;;;;;;;11.50;2.20;;;;;;;17.00;64.71;100143.13;3614695;39;20047;-60
2022/10/24 06:43:36;;;;;;;8.40;2.00;;;;;;;16.85;65.27;100132.78;3611228;39;20348;-59
2022/10/24 06:46:08;;;;;;;5.65;1.60;;;;;;;16.93;65.35;100146.44;3615206;39;20051;-60
2022/10/24 06:48:36;;;;;;;7.65;2.03;;;;;;;16.93;65.25;100151.03;3613939;39;20058;-60
2022/10/24 06:51:03;;;;;;;6.80;1.90;;;;;;;16.92;65.53;100150.19;3615918;39;20043;-60
2022/10/24 06:53:29;;;;;;;9.07;2.15;;;;;;;16.89;65.55;100149.63;3605050;39;20074;-60
2022/10/24 06:56:00;;;;;;;6.13;2.00;;;;;;;16.91;65.71;100162.06;3613909;39;20081;-60
2022/10/24 06:58:31;;;;;;;7.50;1.63;;;;;;;16.93;66.06;100170.88;3614326;39;20389;-59
2022/10/24 07:00:57;;;;;;;4.47;1.60;;;;;;;16.97;65.39;100195.00;3613268;39;20054;-60
2022/10/24 07:03:22;;;;;;;6.95;1.63;;;;;;;16.98;67.23;100204.88;3612553;39;20054;-60
2022/10/24 07:05:48;;;;;;;11.00;2.28;;;;;;;16.94;67.59;100169.91;3614037;39;20039;-60
2022/10/24 07:08:13;;;;;;;9.80;1.80;;;;;;;16.84;68.11;100157.38;3613751;39;20051;-60
2022/10/24 07:10:39;;;;;;;12.02;2.30;;;;;;;16.87;67.62;100162.50;3613997;39;20392;-60
2022/10/24 07:13:05;;;;;;;7.10;1.80;;;;;;;16.81;68.11;100166.69;3613736;39;20047;-60
2022/10/24 07:15:30;;;;;;;5.57;1.75;;;;;;;16.74;68.68;100173.66;3614733;39;20078;-60
2022/10/24 07:17:56;;;;;;;8.85;2.08;;;;;;;16.67;68.99;100165.28;3613823;39;20258;-61
2022/10/24 07:20:21;;;;;;;9.95;1.80;;;;;;;16.69;69.31;100171.44;3611631;39;20058;-60
2022/10/24 07:22:47;;;;;;;8.93;1.95;;;;;;;16.66;69.15;100181.72;3613485;39;20137;-60
2022/10/24 07:25:13;;;;;;;5.18;1.80;;;;;;;16.73;69.78;100190.97;3613799;39;20329;-61
2022/10/24 07:27:39;;;;;;;7.70;1.90;;;;;;;16.84;69.18;100195.38;3613927;39;20091;-61
2022/10/24 07:30:07;;;;;;;9.18;1.92;;;;;;;16.88;69.07;100203.06;3602434;39;20085;-61
2022/10/24 07:32:33;;;;;;;6.25;1.80;;;;;;;16.94;68.25;100207.91;3614249;39;20118;-61
2022/10/24 07:34:59;;;;;;;8.55;1.85;;;;;;;16.99;67.28;100204.72;3614917;39;20086;-61
2022/10/24 07:37:25;;;;;;;7.47;1.98;;;;;;;17.07;68.20;100218.41;3614039;39;20058;-61
2022/10/24 07:39:51;;;;;;;6.30;1.42;;;;;;;17.09;66.85;100210.94;3613790;39;20046;-61
2022/10/24 07:42:17;;;;;;;8.88;2.08;;;;;;;17.14;66.79;100214.06;3613757;39;20393;-61
2022/10/24 07:44:44;;;;;;;4.55;1.40;;;;;;;17.17;66.89;100196.63;3613911;39;20070;-62
2022/10/24 07:47:10;;;;;;;8.00;1.95;;;;;;;17.28;66.02;100215.41;3613776;39;20338;-61
2022/10/24 07:49:37;;;;;;;12.57;2.30;;;;;;;17.31;65.83;100255.84;3612570;39;20119;-61
2022/10/24 07:52:03;;;;;;;7.28;2.05;;;;;;;16.97;65.58;100195.88;3612486;39;20456;-59
2022/10/24 07:54:29;;;;;;;8.75;1.88;;;;;;;17.32;66.18;100252.16;3610552;39;20058;-58
2022/10/24 07:56:54;;;;;;;8.95;2.03;;;;;;;17.39;65.88;100245.09;3613031;39;20095;-58
2022/10/24 07:59:20;;;;;;;10.30;2.30;;;;;;;17.46;65.54;100260.78;3612356;39;20058;-58
2022/10/24 08:01:46;;;;;;;6.80;2.20;;;;;;;17.50;65.49;100245.88;3612741;39;20054;-58
2022/10/24 08:04:12;;;;;;;8.70;1.60;;;;;;;17.54;65.37;100256.28;3613686;39;20050;-59
2022/10/24 08:06:43;;;;;;;8.95;2.00;;;;;;;17.56;65.25;100261.56;3599432;39;20040;-61
2022/10/24 08:09:09;;;;;;;11.65;2.05;;;;;;;17.56;65.08;100267.00;3612557;39;20285;-61
2022/10/24 08:11:34;;;;;;;4.88;1.60;;;;;;;17.48;65.50;100281.34;3613605;39;20061;-61
2022/10/24 08:14:03;;;;;;;6.00;1.55;;;;;;;17.52;65.47;100266.44;3613738;39;20077;-61
2022/10/24 08:16:28;;;;;;;5.93;1.70;;;;;;;17.62;65.42;100271.81;3612479;39;20147;-62
2022/10/24 08:18:57;;;;;;;8.38;1.90;;;;;;;17.72;64.76;100288.91;3613399;39;20393;-61
2022/10/24 08:21:24;;;;;;;12.32;3.38;;;;;;;17.90;64.88;100269.06;3613063;39;20168;-61
2022/10/24 08:23:53;;;;;;;9.73;2.20;;;;;;;18.16;63.67;100291.72;3614071;39;20413;-60
2022/10/24 08:26:23;;;;;;;6.90;1.73;;;;;;;18.30;63.15;100307.50;3613826;39;20059;-60
2022/10/24 08:28:49;;;;;;;10.55;1.77;;;;;;;18.27;61.83;100298.81;3602653;39;20064;-61
2022/10/24 08:31:19;;;;;;;7.57;1.75;;;;;;;18.22;62.85;100296.53;3612588;39;20051;-61
2022/10/24 08:33:46;;;;;;;9.82;1.70;;;;;;;18.19;62.42;100307.75;3613906;39;20043;-61
2022/10/24 08:36:26;;;;;;;7.00;1.63;;;;;;;18.19;62.94;100306.91;3613228;39;20047;-60
2022/10/24 08:38:52;;;;;;;7.18;2.00;;;;;;;18.09;63.07;100305.09;3613752;39;20386;-61
2022/10/24 08:41:32;;;;;;;10.43;2.22;;;;;;;18.01;63.62;100309.59;3612593;39;20104;-61
2022/10/24 08:44:03;;;;;;;7.63;1.88;;;;;;;17.92;63.95;100311.41;3610553;39;20048;-61
2022/10/24 08:46:43;;;;;;;6.43;2.00;;;;;;;17.81;64.42;100304.31;3613865;39;20104;-61
2022/10/24 08:49:36;;;;;;;8.23;2.15;;;;;;;17.79;64.09;100310.91;3613477;39;20054;-61
2022/10/24 08:52:30;;;;;;;8.10;1.73;;;;;;;18.01;64.06;100315.06;3610491;39;20289;-61
2022/10/24 08:55:02;;;;;;;;;;;;;;;18.19;63.10;100305.03;3611240;39;20063;-61
2022/10/24 08:57:33;;;;;;;8.27;1.83;;;;;;;18.33;61.89;100315.34;3612664;39;19939;-61
2022/10/24 09:00:12;;;;;;;8.32;2.35;;;;;;;18.51;61.94;100311.72;3613059;39;20051;-61
2022/10/24 09:02:45;;;;;;;6.18;1.50;;;;;;;18.71;60.73;100307.81;3610857;39;20062;-61
2022/10/24 09:05:36;;;;;;;8.32;1.90;;;;;;;18.88;59.31;100316.97;3611462;39;20047;-62
2022/10/24 09:08:37;;;;;;;8.25;2.08;;;;;;;19.11;59.12;100314.53;3613002;39;20513;-61
2022/10/24 09:11:06;;;;;;;8.38;2.15;;;;;;;19.19;58.07;100325.47;3613237;39;20124;-61
2022/10/24 09:13:37;;;;;;;5.60;1.38;;;;;;;19.33;58.54;100328.59;3613518;39;20339;-58
2022/10/24 09:16:04;;;;;;;7.35;2.28;;;;;;;19.52;58.26;100331.06;3612292;39;20055;-59
2022/10/24 09:18:39;;;;;;;6.97;1.77;;;;;;;19.53;57.64;100307.38;3613708;39;20050;-58
2022/10/24 09:21:11;;;;;;;7.13;1.90;;;;;;;19.68;57.25;100339.31;3616822;39;20262;-60
2022/10/24 09:23:37;;;;;;;10.05;2.20;;;;;;;19.59;57.64;100323.91;3613133;39;20055;-61
2022/10/24 09:26:12;;;;;;;8.20;1.95;;;;;;;19.72;57.71;100350.75;3612978;39;20401;-61
2022/10/24 09:28:38;;;;;;;8.63;1.88;;;;;;;19.76;57.51;100337.63;3609733;39;20282;-59
2022/10/24 09:31:19;;;;;;;7.78;2.20;;;;;;;19.81;57.01;100343.44;3610826;39;20091;-59
2022/10/24 09:33:49;;;;;;;8.10;2.15;;;;;;;19.88;56.72;100333.56;3613478;39;20378;-58
2022/10/24 09:36:18;;;;;;;7.78;1.88;;;;;;;19.66;56.12;100355.00;3613177;39;20045;-58
2022/10/24 09:38:47;;;;;;;10.07;2.25;;;;;;;19.50;57.21;100363.06;3612487;39;20334;-58
2022/10/24 09:41:27;;;;;;;10.05;2.30;;;;;;;19.21;57.97;100364.28;3612935;39;20047;-58
2022/10/24 09:44:00;;;;;;;9.75;2.10;;;;;;;19.09;59.02;100359.28;3613179;39;20061;-61
2022/10/24 09:46:44;;;;;;;9.90;2.53;;;;;;;19.18;59.11;100369.22;3612932;39;21266;-61
2022/10/24 09:49:13;;;;;;;10.27;2.30;;;;;;;19.36;58.96;100377.34;3613793;39;20067;-61
2022/10/24 09:51:49;;;;;;;12.40;2.45;;;;;;;19.52;58.33;100366.50;3598861;39;20391;-58
2022/10/24 09:54:18;;;;;;;10.63;2.22;;;;;;;19.58;57.40;100370.44;3611838;39;20059;-60
2022/10/24 09:57:15;;;;;;;11.45;2.30;;;;;;;19.75;57.30;100377.69;3613123;39;20057;-59
2022/10/24 09:59:45;;;;;;;11.82;2.17;;;;;;;19.85;56.85;100372.09;3611023;39;20045;-59
2022/10/24 10:02:23;;;;;;;7.00;1.77;;;;;;;19.81;56.36;100378.91;3612749;39;20140;-59
2022/10/24 10:05:16;;;;;;;9.55;2.25;;;;;;;19.74;57.45;100372.41;3613404;39;20078;-59
2022/10/24 10:07:47;;;;;;;8.95;2.03;;;;;;;19.69;57.21;100390.13;3611470;39;20055;-59
2022/10/24 10:10:27;;;;;;;11.73;2.50;;;;;;;19.53;57.87;100379.09;3612893;39;20281;-59
2022/10/24 10:13:22;;;;;;;11.20;2.67;;;;;;;19.33;58.46;100377.66;3612672;39;20123;-60
2022/10/24 10:15:55;;;;;;;7.97;1.95;;;;;;;19.17;59.23;100390.16;3612390;39;20039;-61
2022/10/24 10:18:47;;;;;;;7.80;2.20;;;;;;;19.11;59.25;100396.25;3614840;39;20054;-60
2022/10/24 10:21:23;;;;;;;8.65;2.05;;;;;;;19.45;58.24;100396.28;3610300;39;20578;-61
2022/10/24 10:23:55;;;;;;;8.93;2.13;;;;;;;19.87;57.42;100398.19;3614362;39;20039;-61
2022/10/24 10:26:42;;;;;;;10.63;2.78;;;;;;;20.29;56.57;100401.84;3614150;39;20055;-61
2022/10/24 10:29:17;;;;;;;11.63;2.40;;;;;;;20.33;55.30;100344.03;3612502;39;20050;-58
2022/10/24 10:32:24;;;;;;;11.65;2.40;;;;;;;20.53;54.58;100407.38;3614817;39;20086;-59
2022/10/24 10:35:25;;;;;;;10.25;2.05;;;;;;;20.33;54.91;100416.88;3612799;39;20104;-58
2022/10/24 10:38:03;;;;;;;9.52;2.08;;;;;;;20.13;55.46;100419.06;3611879;39;20450;-58
2022/10/24 10:40:44;;;;;;;10.80;2.22;;;;;;;19.84;55.92;100425.78;3614883;39;20047;-60
2022/10/24 10:43:50;;;;;;;10.75;2.33;;;;;;;19.63;56.93;100434.38;3612790;39;20078;-61
2022/10/24 10:46:43;;;;;;;9.52;2.70;;;;;;;19.38;57.78;100446.19;3615230;39;20053;-61
2022/10/24 10:49:26;;;;;;;11.55;2.38;;;;;;;19.11;59.54;100431.69;3612774;39;20043;-61
2022/10/24 10:51:52;;;;;;;;;;;;;;;18.88;60.98;100433.22;3613837;39;20035;-61
2022/10/24 10:54:45;;;;;;;12.40;2.47;;;;;;;18.67;62.91;100442.53;3612832;39;19927;-62
2022/10/24 10:57:18;;;;;;;9.23;2.50;;;;;;;18.52;64.81;100447.69;3603433;39;20043;-62
2022/10/24 11:00:13;;;;;;;9.00;2.45;;;;;;;18.33;66.02;100440.53;3613268;39;20054;-63
2022/10/24 11:03:05;;;;;;;9.00;2.13;;;;;;;18.24;66.25;100455.06;3612294;39;20083;-61
2022/10/24 11:06:15;;;;;;;11.63;2.63;;;;;;;17.98;66.69;100456.78;3598372;39;20050;-62
2022/10/24 11:09:10;;;;;;;10.40;2.17;;;;;;;17.82;67.91;100452.00;3612714;39;20096;-62
2022/10/24 11:11:43;;;;;;;8.93;1.98;;;;;;;17.76;69.08;100452.56;3613804;39;20063;-62
2022/10/24 11:14:39;;;;;;;7.38;2.08;;;;;;;18.16;67.94;100454.97;3614186;39;20143;-61
2022/10/24 11:17:22;;;;;;;7.63;1.80;;;;;;;18.90;67.19;100436.63;3614074;39;20043;-62
2022/10/24 11:20:15;;;;;;;10.50;1.80;;;;;;;19.53;63.78;100452.72;3596546;39;20087;-62
2022/10/24 11:22:55;;;;;;;7.65;1.80;;;;;;;20.07;61.76;100461.50;3613091;39;20047;-61
2022/10/24 11:25:49;;;;;;;7.78;1.58;;;;;;;20.50;60.44;100451.38;3613849;39;20070;-61
2022/10/24 11:28:52;;;;;;;9.30;2.05;;;;;;;20.36;58.69;100468.41;3614116;39;20102;-61
2022/10/24 11:31:38;;;;;;;6.68;1.95;;;;;;;20.18;59.18;100463.94;3611877;39;20356;-60
2022/10/24 11:34:17;;;;;;;5.90;1.70;;;;;;;20.06;59.21;100468.00;3610189;39;20043;-60
2022/10/24 11:36:57;;;;;;;7.68;2.50;;;;;;;20.24;58.55;100459.69;3614394;39;20057;-59
2022/10/24 11:39:48;;;;;;;7.72;2.22;;;;;;;20.26;58.66;100467.72;3613972;39;20379;-59
2022/10/24 11:42:36;;;;;;;8.75;1.92;;;;;;;20.90;57.42;100463.41;3610909;39;20408;-60
2022/10/24 11:45:14;;;;;;;7.95;1.90;;;;;;;21.22;55.84;100458.94;3613393;39;20054;-58
2022/10/24 11:48:01;;;;;;;9.80;2.00;;;;;;;21.65;53.30;100459.53;3613364;39;20367;-57